createdAt,value
2018-09-12T00:01:26.796Z,101349.43
2018-09-12T00:03:56.157Z,101343.45
2018-09-12T00:06:24.285Z,101348.69
2018-09-12T00:08:52.543Z,101345.47
2018-09-12T00:11:20.623Z,101343.52
2018-09-12T00:13:49.236Z,101335.44
2018-09-12T00:16:17.334Z,101338.27
2018-09-12T00:18:45.679Z,101333.58
2018-09-12T00:21:13.853Z,101338.30
2018-09-12T00:23:41.997Z,101340.27
2018-09-12T00:26:10.155Z,101336.72
2018-09-12T00:28:38.465Z,101343.06
2018-09-12T00:31:06.676Z,101342.69
2018-09-12T00:33:34.802Z,101342.05
2018-09-12T00:36:02.982Z,101343.37
2018-09-12T00:38:31.149Z,101337.08
2018-09-12T00:40:59.318Z,101334.23
2018-09-12T00:43:27.424Z,101340.46
2018-09-12T00:45:55.566Z,101339.03
2018-09-12T00:48:23.722Z,101342.05
2018-09-12T00:50:51.906Z,101342.73
2018-09-12T00:53:20.104Z,101338.50
2018-09-12T00:55:48.268Z,101347.73
2018-09-12T00:58:16.412Z,101350.34
2018-09-12T01:00:44.569Z,101348.55
2018-09-12T01:03:12.689Z,101352.06
2018-09-12T01:05:41.789Z,101343.47
2018-09-12T01:08:11.197Z,101339.61
2018-09-12T01:10:39.364Z,101331.12
2018-09-12T01:13:07.690Z,101330.28
2018-09-12T01:15:36.163Z,101327.91
2018-09-12T01:18:04.337Z,101331.13
2018-09-12T01:20:32.548Z,101337.86
2018-09-12T01:23:00.685Z,101343.54
2018-09-12T01:25:28.820Z,101335.76
2018-09-12T01:27:57.952Z,101337.14
2018-09-12T01:30:26.271Z,101342.93
2018-09-12T01:32:56.980Z,101336.98
2018-09-12T01:35:25.244Z,101334.64
2018-09-12T01:37:53.389Z,101344.02
2018-09-12T01:40:21.493Z,101346.01
2018-09-12T01:42:49.597Z,101338.30
2018-09-12T01:45:19.206Z,101332.75
2018-09-12T01:47:47.481Z,101340.94
2018-09-12T01:50:15.664Z,101347.77
2018-09-12T01:52:43.810Z,101339.61
2018-09-12T01:55:11.961Z,101349.05
2018-09-12T01:57:40.254Z,101349.52
2018-09-12T02:00:13.327Z,101354.12
2018-09-12T02:02:41.456Z,101347.62
2018-09-12T02:05:09.623Z,101346.92
2018-09-12T02:07:38.368Z,101341.64
2018-09-12T02:10:07.754Z,101349.55
2018-09-12T02:12:35.889Z,101349.70
2018-09-12T02:15:04.181Z,101348.50
2018-09-12T02:17:32.310Z,101344.64
2018-09-12T02:20:00.489Z,101351.73
2018-09-12T02:22:28.607Z,101355.74
2018-09-12T02:24:56.766Z,101356.70
2018-09-12T02:27:24.982Z,101352.33
2018-09-12T02:29:53.126Z,101350.23
2018-09-12T02:32:21.258Z,101359.63
2018-09-12T02:34:49.377Z,101358.45
2018-09-12T02:37:17.514Z,101355.81
2018-09-12T02:39:45.629Z,101362.59
2018-09-12T02:42:13.801Z,101368.33
2018-09-12T02:44:41.981Z,101365.16
2018-09-12T02:47:14.309Z,101365.91
2018-09-12T02:49:42.437Z,101355.00
2018-09-12T02:52:10.590Z,101349.45
2018-09-12T02:54:38.761Z,101338.28
2018-09-12T02:57:06.924Z,101343.08
2018-09-12T02:59:35.053Z,101341.77
2018-09-12T03:02:03.241Z,101345.22
2018-09-12T03:04:31.376Z,101350.04
2018-09-12T03:06:59.543Z,101345.50
2018-09-12T03:09:27.696Z,101337.44
2018-09-12T03:11:55.873Z,101337.16
2018-09-12T03:14:24.046Z,101334.43
2018-09-12T03:16:52.181Z,101333.86
2018-09-12T03:19:20.384Z,101340.62
2018-09-12T03:26:47.662Z,101341.02
2018-09-12T03:29:15.792Z,101340.17
2018-09-12T03:31:43.933Z,101327.01
2018-09-12T03:34:12.056Z,101330.39
2018-09-12T03:36:40.196Z,101323.63
2018-09-12T03:39:10.216Z,101321.00
2018-09-12T03:41:38.600Z,101320.16
2018-09-12T03:44:06.747Z,101313.01
2018-09-12T03:46:34.920Z,101318.16
2018-09-12T03:49:03.080Z,101323.72
2018-09-12T03:51:31.260Z,101321.86
2018-09-12T03:53:59.389Z,101308.31
2018-09-12T03:56:27.578Z,101315.54
2018-09-12T03:58:55.777Z,101327.39
2018-09-12T04:01:23.938Z,101321.75
2018-09-12T04:03:52.203Z,101322.78
2018-09-12T04:06:20.877Z,101328.80
2018-09-12T04:08:48.995Z,101326.64
2018-09-12T04:11:17.104Z,101311.05
2018-09-12T04:13:45.286Z,101305.78
2018-09-12T04:16:13.397Z,101298.98
2018-09-12T04:18:41.561Z,101299.08
2018-09-12T04:21:09.731Z,101301.70
2018-09-12T04:23:37.835Z,101297.48
2018-09-12T04:26:05.960Z,101297.76
2018-09-12T04:28:34.093Z,101300.86
2018-09-12T04:31:02.229Z,101303.22
2018-09-12T04:33:30.423Z,101290.70
2018-09-12T04:35:58.584Z,101286.72
2018-09-12T04:38:26.718Z,101288.17
2018-09-12T04:40:54.825Z,101295.59
2018-09-12T04:43:23.024Z,101298.70
2018-09-12T04:45:51.170Z,101290.33
2018-09-12T04:48:19.336Z,101288.83
2018-09-12T04:50:47.465Z,101296.16
2018-09-12T04:53:15.597Z,101306.88
2018-09-12T04:55:43.740Z,101317.05
2018-09-12T04:58:11.892Z,101317.15
2018-09-12T05:00:40.007Z,101320.03
2018-09-12T05:03:08.114Z,101329.72
2018-09-12T05:05:36.341Z,101335.94
2018-09-12T05:08:04.517Z,101334.22
2018-09-12T05:10:32.606Z,101335.83
2018-09-12T05:13:00.747Z,101343.66
2018-09-12T05:15:28.892Z,101334.16
2018-09-12T05:17:56.995Z,101331.50
2018-09-12T05:20:25.107Z,101321.18
2018-09-12T05:22:53.191Z,101315.92
2018-09-12T05:25:21.321Z,101305.40
2018-09-12T05:27:49.444Z,101297.28
2018-09-12T05:30:17.553Z,101313.94
2018-09-12T05:32:45.684Z,101324.34
2018-09-12T05:35:13.832Z,101327.56
2018-09-12T05:37:41.965Z,101326.72
2018-09-12T05:40:10.090Z,101320.78
2018-09-12T05:42:38.243Z,101315.53
2018-09-12T05:45:06.391Z,101323.03
2018-09-12T05:47:34.505Z,101334.87
2018-09-12T05:50:02.643Z,101328.45
2018-09-12T05:52:30.745Z,101333.83
2018-09-12T05:54:58.834Z,101337.20
2018-09-12T05:57:26.949Z,101332.04
2018-09-12T05:59:55.070Z,101339.09
2018-09-12T06:02:23.180Z,101344.92
2018-09-12T06:04:51.300Z,101345.95
2018-09-12T06:07:19.498Z,101344.84
2018-09-12T06:09:47.533Z,101348.80
2018-09-12T06:12:15.641Z,101339.76
2018-09-12T06:14:43.774Z,101343.36
2018-09-12T06:17:11.892Z,101346.22
2018-09-12T06:19:40.007Z,101349.34
2018-09-12T06:22:08.152Z,101352.80
2018-09-12T06:24:36.277Z,101362.48
2018-09-12T06:27:04.412Z,101366.83
2018-09-12T06:29:32.526Z,101363.53
2018-09-12T06:32:00.658Z,101369.23
2018-09-12T06:34:28.787Z,101365.78
2018-09-12T06:36:56.897Z,101366.12
2018-09-12T06:39:25.025Z,101363.37
2018-09-12T06:41:53.142Z,101358.38
2018-09-12T06:44:21.241Z,101361.16
2018-09-12T06:46:49.372Z,101354.23
2018-09-12T06:49:17.475Z,101359.02
2018-09-12T06:51:45.569Z,101362.50
2018-09-12T06:54:13.669Z,101365.95
2018-09-12T06:56:41.790Z,101356.29
2018-09-12T06:59:09.876Z,101347.83
2018-09-12T07:01:38.001Z,101348.53
2018-09-12T07:04:06.273Z,101347.69
2018-09-12T07:06:34.431Z,101353.22
2018-09-12T07:09:02.556Z,101356.80
2018-09-12T07:11:30.704Z,101352.28
2018-09-12T07:13:58.763Z,101341.95
2018-09-12T07:16:26.866Z,101351.46
2018-09-12T07:18:55.067Z,101350.31
2018-09-12T07:21:23.180Z,101353.41
2018-09-12T07:23:51.314Z,101354.07
2018-09-12T07:26:19.421Z,101365.55
2018-09-12T07:28:47.581Z,101361.78
2018-09-12T07:31:15.678Z,101358.20
2018-09-12T07:33:43.807Z,101361.02
2018-09-12T07:36:11.925Z,101361.60
2018-09-12T07:38:40.049Z,101375.33
2018-09-12T07:41:08.272Z,101382.65
2018-09-12T07:43:36.363Z,101388.02
2018-09-12T07:46:04.605Z,101402.19
2018-09-12T07:48:32.771Z,101406.15
2018-09-12T07:51:00.866Z,101407.20
2018-09-12T07:53:28.965Z,101403.81
2018-09-12T07:55:57.104Z,101413.20
2018-09-12T07:58:25.198Z,101410.66
2018-09-12T08:00:53.447Z,101416.77
2018-09-12T08:03:21.475Z,101421.66
2018-09-12T08:05:49.593Z,101412.25
2018-09-12T08:08:17.721Z,101410.39
2018-09-12T08:10:45.861Z,101404.75
2018-09-12T08:13:13.974Z,101413.60
2018-09-12T08:15:42.098Z,101418.11
2018-09-12T08:18:10.257Z,101427.59
2018-09-12T08:20:38.445Z,101421.77
2018-09-12T08:23:06.735Z,101421.97
2018-09-12T08:25:34.843Z,101414.81
2018-09-12T08:28:02.977Z,101416.98
2018-09-12T08:30:31.111Z,101429.47
2018-09-12T08:32:59.205Z,101440.38
2018-09-12T08:35:27.340Z,101434.55
2018-09-12T08:37:55.442Z,101434.93
2018-09-12T08:40:23.604Z,101435.89
2018-09-12T08:42:51.742Z,101421.02
2018-09-12T08:45:19.893Z,101421.85
2018-09-12T08:47:48.079Z,101437.00
2018-09-12T08:50:16.143Z,101437.48
2018-09-12T08:52:44.252Z,101433.80
2018-09-12T08:55:12.361Z,101444.91
2018-09-12T08:57:40.505Z,101461.18
2018-09-12T09:00:08.680Z,101468.80
2018-09-12T09:02:36.789Z,101464.28
2018-09-12T09:05:04.942Z,101467.39
2018-09-12T09:07:33.088Z,101462.39
2018-09-12T09:10:01.213Z,101468.13
2018-09-12T09:12:29.337Z,101475.19
2018-09-12T09:15:00.485Z,101480.38
2018-09-12T09:17:28.676Z,101482.72
2018-09-12T09:19:56.753Z,101479.59
2018-09-12T09:22:24.863Z,101468.29
2018-09-12T09:24:52.985Z,101466.88
2018-09-12T09:27:21.129Z,101472.05
2018-09-12T09:29:49.253Z,101484.95
2018-09-12T09:32:17.378Z,101477.45
2018-09-12T09:34:45.566Z,101479.49
2018-09-12T09:37:13.648Z,101488.73
2018-09-12T09:39:41.780Z,101497.98
2018-09-12T09:42:09.906Z,101506.53
2018-09-12T09:44:38.016Z,101510.00
2018-09-12T09:47:06.137Z,101515.16
2018-09-12T09:49:34.212Z,101507.17
2018-09-12T09:52:02.353Z,101514.53
2018-09-12T09:54:30.456Z,101506.72
2018-09-12T09:56:58.556Z,101505.95
2018-09-12T09:59:26.660Z,101505.69
2018-09-12T10:02:00.105Z,101506.27
2018-09-12T10:04:33.566Z,101507.67
2018-09-12T10:07:07.097Z,101502.67
2018-09-12T10:09:35.204Z,101507.95
2018-09-12T10:12:04.224Z,101509.55
2018-09-12T10:14:32.374Z,101507.85
2018-09-12T10:17:00.482Z,101505.59
2018-09-12T10:19:28.616Z,101512.93
2018-09-12T10:21:56.761Z,101510.77
2018-09-12T10:24:24.969Z,101508.88
2018-09-12T10:26:53.040Z,101513.38
2018-09-12T10:29:21.167Z,101516.52
2018-09-12T10:31:49.292Z,101524.40
2018-09-12T10:34:17.416Z,101527.33
2018-09-12T10:36:45.521Z,101522.59
2018-09-12T10:39:14.407Z,101522.23
2018-09-12T10:41:43.286Z,101537.75
2018-09-12T10:44:11.434Z,101535.23
2018-09-12T10:46:39.531Z,101539.93
2018-09-12T10:49:07.810Z,101553.16
2018-09-12T10:51:35.901Z,101545.22
2018-09-12T10:54:04.034Z,101548.69
2018-09-12T10:56:32.421Z,101553.55
2018-09-12T10:59:00.597Z,101561.73
2018-09-12T11:01:28.723Z,101559.48
2018-09-12T11:03:56.858Z,101564.73
2018-09-12T11:06:24.989Z,101555.92
2018-09-12T11:08:53.091Z,101547.00
2018-09-12T11:11:21.189Z,101549.95
2018-09-12T11:13:49.406Z,101559.02
2018-09-12T11:16:17.541Z,101566.46
2018-09-12T11:18:45.633Z,101567.80
2018-09-12T11:21:13.755Z,101563.91
2018-09-12T11:28:36.738Z,101564.42
2018-09-12T11:31:04.864Z,101567.69
2018-09-12T11:33:32.965Z,101572.59
2018-09-12T11:36:01.105Z,101569.34
2018-09-12T11:38:29.214Z,101563.95
2018-09-12T11:40:57.325Z,101549.17
2018-09-12T11:43:31.775Z,101547.56
2018-09-12T11:45:59.984Z,101544.42
2018-09-12T11:48:28.093Z,101548.95
2018-09-12T11:50:56.212Z,101557.33
2018-09-12T11:53:24.362Z,101552.62
2018-09-12T11:55:52.470Z,101547.56
2018-09-12T11:58:20.560Z,101541.66
2018-09-12T12:00:48.674Z,101544.69
2018-09-12T12:03:16.801Z,101549.02
2018-09-12T12:05:44.922Z,101552.78
2018-09-12T12:08:13.236Z,101566.27
2018-09-12T12:10:41.415Z,101573.12
2018-09-12T12:13:09.515Z,101573.34
2018-09-12T12:15:37.640Z,101581.88
2018-09-12T12:18:05.874Z,101592.94
2018-09-12T12:20:33.988Z,101592.06
2018-09-12T12:23:02.121Z,101588.38
2018-09-12T12:25:30.240Z,101593.59
2018-09-12T12:27:58.374Z,101595.20
2018-09-12T12:30:26.481Z,101598.62
2018-09-12T12:32:54.620Z,101594.38
2018-09-12T12:35:22.881Z,101605.56
2018-09-12T12:37:50.999Z,101610.38
2018-09-12T12:40:19.132Z,101618.48
2018-09-12T12:42:47.540Z,101627.63
2018-09-12T12:45:16.652Z,101624.89
2018-09-12T12:47:44.800Z,101626.28
2018-09-12T12:50:12.901Z,101625.37
2018-09-12T12:52:41.002Z,101625.17
2018-09-12T12:55:09.105Z,101621.61
2018-09-12T12:57:37.200Z,101624.00
2018-09-12T13:00:05.317Z,101623.30
2018-09-12T13:02:33.442Z,101623.22
2018-09-12T13:05:01.569Z,101622.38
2018-09-12T13:07:29.714Z,101626.78
2018-09-12T13:09:57.845Z,101622.34
2018-09-12T13:12:25.953Z,101624.36
2018-09-12T13:14:54.048Z,101620.23
2018-09-12T13:17:22.190Z,101626.52
2018-09-12T13:19:50.313Z,101632.95
2018-09-12T13:22:18.474Z,101639.66
2018-09-12T13:24:46.590Z,101646.42
2018-09-12T13:27:14.714Z,101639.78
2018-09-12T13:29:42.808Z,101643.35
2018-09-12T13:32:11.081Z,101644.80
2018-09-12T13:34:39.389Z,101646.78
2018-09-12T13:37:07.438Z,101648.59
2018-09-12T13:39:35.549Z,101651.44
2018-09-12T13:42:03.653Z,101647.77
2018-09-12T13:44:31.821Z,101652.38
2018-09-12T13:47:00.171Z,101651.55
2018-09-12T13:49:28.327Z,101659.60
2018-09-12T13:51:56.488Z,101652.98
2018-09-12T13:54:24.615Z,101656.74
2018-09-12T13:56:52.771Z,101663.96
2018-09-12T13:59:20.873Z,101667.97
2018-09-12T14:01:48.991Z,101665.92
2018-09-12T14:04:17.139Z,101677.15
2018-09-12T14:06:45.269Z,101678.13
2018-09-12T14:09:13.416Z,101674.94
2018-09-12T14:11:41.552Z,101676.30
2018-09-12T14:14:09.976Z,101677.23
2018-09-12T14:16:38.101Z,101683.67
2018-09-12T14:19:06.277Z,101687.64
2018-09-12T14:21:34.396Z,101682.81
2018-09-12T14:24:02.525Z,101686.67
2018-09-12T14:26:30.648Z,101686.52
2018-09-12T14:28:58.752Z,101686.38
2018-09-12T14:31:26.861Z,101696.38
2018-09-12T14:33:55.305Z,101693.36
2018-09-12T14:36:23.440Z,101685.46
2018-09-12T14:38:51.626Z,101686.86
2018-09-12T14:41:19.780Z,101691.64
2018-09-12T14:43:47.901Z,101697.89
2018-09-12T14:46:16.044Z,101685.66
2018-09-12T14:48:44.174Z,101684.95
2018-09-12T14:51:12.313Z,101693.23
2018-09-12T14:53:40.429Z,101692.60
2018-09-12T14:56:08.584Z,101694.95
2018-09-12T14:58:36.712Z,101702.12
2018-09-12T15:01:04.797Z,101705.22
2018-09-12T15:03:32.927Z,101697.27
2018-09-12T15:06:01.027Z,101695.02
2018-09-12T15:08:29.136Z,101697.05
2018-09-12T15:10:57.250Z,101689.03
2018-09-12T15:13:25.357Z,101690.69
2018-09-12T15:15:53.475Z,101697.04
2018-09-12T15:18:21.596Z,101700.32
2018-09-12T15:20:49.719Z,101704.79
2018-09-12T15:23:17.841Z,101707.56
2018-09-12T15:25:45.945Z,101704.55
2018-09-12T15:28:14.051Z,101700.17
2018-09-12T15:30:42.164Z,101699.12
2018-09-12T15:33:10.452Z,101685.94
2018-09-12T15:35:38.555Z,101689.77
2018-09-12T15:38:06.681Z,101698.34
2018-09-12T15:40:34.793Z,101714.83
2018-09-12T15:43:02.914Z,101710.03
2018-09-12T15:45:31.014Z,101707.53
2018-09-12T15:47:59.115Z,101711.64
2018-09-12T15:50:27.212Z,101710.95
2018-09-12T15:52:55.413Z,101701.75
2018-09-12T15:55:23.692Z,101701.66
2018-09-12T15:57:51.807Z,101702.20
2018-09-12T16:00:19.926Z,101701.58
2018-09-12T16:02:48.119Z,101690.70
2018-09-12T16:05:16.202Z,101688.23
2018-09-12T16:07:44.373Z,101698.77
2018-09-12T16:10:12.498Z,101695.91
2018-09-12T16:12:40.601Z,101698.81
2018-09-12T16:15:08.710Z,101690.66
2018-09-12T16:17:36.801Z,101694.17
2018-09-12T16:20:05.108Z,101699.47
2018-09-12T16:22:33.290Z,101700.79
2018-09-12T16:25:01.469Z,101717.44
2018-09-12T16:27:29.578Z,101719.98
2018-09-12T16:29:57.740Z,101707.20
2018-09-12T16:32:25.921Z,101704.79
2018-09-12T16:34:54.027Z,101698.37
2018-09-12T16:37:22.129Z,101706.72
2018-09-12T16:39:50.224Z,101713.19
2018-09-12T16:42:18.361Z,101702.32
2018-09-12T16:44:46.581Z,101704.41
2018-09-12T16:47:14.721Z,101701.52
2018-09-12T16:49:43.012Z,101696.42
2018-09-12T16:52:11.153Z,101697.99
2018-09-12T16:54:39.222Z,101704.73
2018-09-12T16:57:07.320Z,101706.35
2018-09-12T16:59:35.485Z,101684.44
2018-09-12T17:02:03.625Z,101686.14
2018-09-12T17:04:31.753Z,101692.34
2018-09-12T17:06:59.886Z,101699.39
2018-09-12T17:09:28.039Z,101696.08
2018-09-12T17:11:56.194Z,101700.54
2018-09-12T17:14:24.362Z,101704.92
2018-09-12T17:16:52.624Z,101705.06
2018-09-12T17:19:20.802Z,101714.60
2018-09-12T17:21:48.941Z,101707.59
2018-09-12T17:24:17.068Z,101717.95
2018-09-12T17:26:45.263Z,101705.95
2018-09-12T17:29:13.394Z,101696.20
2018-09-12T17:31:41.518Z,101706.25
2018-09-12T17:34:09.648Z,101717.41
2018-09-12T17:36:37.741Z,101718.18
2018-09-12T17:39:07.561Z,101729.18
2018-09-12T17:41:35.660Z,101732.92
2018-09-12T17:44:03.815Z,101738.80
2018-09-12T17:46:31.949Z,101745.05
2018-09-12T17:49:00.054Z,101742.50
2018-09-12T17:51:28.181Z,101741.76
2018-09-12T17:53:56.304Z,101730.56
2018-09-12T17:56:24.430Z,101735.97
2018-09-12T17:58:52.565Z,101737.22
2018-09-12T18:01:20.698Z,101730.19
2018-09-12T18:03:48.819Z,101734.59
2018-09-12T18:06:16.956Z,101743.94
2018-09-12T18:08:45.116Z,101748.38
2018-09-12T18:11:13.314Z,101757.44
2018-09-12T18:13:41.389Z,101752.61
2018-09-12T18:16:09.531Z,101747.88
2018-09-12T18:18:37.665Z,101751.59
2018-09-12T18:21:05.861Z,101757.24
2018-09-12T18:23:34.021Z,101759.26
2018-09-12T18:26:02.189Z,101756.27
2018-09-12T18:28:30.326Z,101749.86
2018-09-12T18:30:58.618Z,101754.27
2018-09-12T18:33:26.733Z,101756.43
2018-09-12T18:35:55.018Z,101754.03
2018-09-12T18:38:23.537Z,101766.25
2018-09-12T18:40:51.703Z,101767.02
2018-09-12T18:43:19.804Z,101766.02
2018-09-12T18:45:47.969Z,101771.66
2018-09-12T18:48:16.096Z,101778.57
2018-09-12T18:50:44.226Z,101781.35
2018-09-12T18:53:12.386Z,101769.84
2018-09-12T18:55:40.648Z,101776.94
2018-09-12T18:58:08.866Z,101777.66
2018-09-12T19:00:37.016Z,101788.47
2018-09-12T19:03:05.134Z,101781.90
2018-09-12T19:05:33.286Z,101783.53
2018-09-12T19:08:01.408Z,101782.58
2018-09-12T19:10:29.779Z,101790.41
2018-09-12T19:12:58.223Z,101791.09
2018-09-12T19:15:26.370Z,101799.86
2018-09-12T19:17:54.493Z,101800.33
2018-09-12T19:20:22.608Z,101790.06
2018-09-12T19:22:50.812Z,101797.17
2018-09-12T19:25:18.928Z,101793.94
2018-09-12T19:27:47.020Z,101794.16
2018-09-12T19:30:15.147Z,101792.91
2018-09-12T19:32:43.289Z,101791.52
2018-09-12T19:35:11.517Z,101783.11
2018-09-12T19:37:39.640Z,101778.70
2018-09-12T19:40:07.819Z,101783.72
2018-09-12T19:42:35.990Z,101785.56
2018-09-12T19:45:04.135Z,101785.81
2018-09-12T19:47:32.241Z,101780.66
2018-09-12T19:50:00.405Z,101774.62
2018-09-12T19:52:28.582Z,101777.39
2018-09-12T19:54:56.741Z,101778.17
2018-09-12T19:57:24.918Z,101792.45
2018-09-12T19:59:53.065Z,101784.43
2018-09-12T20:02:25.344Z,101787.38
2018-09-12T20:04:53.498Z,101791.45
2018-09-12T20:07:21.703Z,101787.84
2018-09-12T20:09:50.597Z,101787.41
2018-09-12T20:12:19.090Z,101791.74
2018-09-12T20:14:47.216Z,101790.68
2018-09-12T20:17:15.403Z,101784.39
2018-09-12T20:19:43.527Z,101793.45
2018-09-12T20:22:11.697Z,101789.52
2018-09-12T20:24:39.884Z,101791.28
2018-09-12T20:27:08.360Z,101783.73
2018-09-12T20:29:36.499Z,101780.56
2018-09-12T20:32:04.604Z,101777.48
2018-09-12T20:34:32.746Z,101784.26
2018-09-12T20:37:00.887Z,101787.30
2018-09-12T20:39:29.010Z,101787.04
2018-09-12T20:41:57.132Z,101786.78
2018-09-12T20:44:25.279Z,101787.71
2018-09-12T20:46:53.428Z,101782.97
2018-09-12T20:49:21.576Z,101784.21
2018-09-12T20:51:49.700Z,101781.05
2018-09-12T20:54:17.843Z,101786.63
2018-09-12T20:56:46.929Z,101779.75
2018-09-12T20:59:15.067Z,101780.53
2018-09-12T21:01:43.181Z,101780.28
2018-09-12T21:04:11.339Z,101786.10
2018-09-12T21:06:39.526Z,101785.71
2018-09-12T21:09:10.480Z,101793.73
2018-09-12T21:11:38.969Z,101804.94
2018-09-12T21:14:07.153Z,101797.85
2018-09-12T21:16:35.339Z,101799.97
2018-09-12T21:19:03.532Z,101797.94
2018-09-12T21:21:31.761Z,101802.86
2018-09-12T21:23:59.946Z,101804.56
2018-09-12T21:26:28.382Z,101807.86
2018-09-12T21:28:56.820Z,101813.42
2018-09-12T21:31:24.903Z,101805.88
2018-09-12T21:33:53.209Z,101803.97
2018-09-12T21:36:21.685Z,101802.31
2018-09-12T21:38:49.784Z,101799.97
2018-09-12T21:41:17.962Z,101807.30
2018-09-12T21:43:46.070Z,101808.23
2018-09-12T21:46:15.090Z,101808.38
2018-09-12T21:48:43.289Z,101803.91
2018-09-12T21:51:11.405Z,101803.91
2018-09-12T21:53:40.590Z,101813.55
2018-09-12T21:56:08.796Z,101813.61
2018-09-12T21:58:36.953Z,101815.39
2018-09-12T22:01:05.118Z,101811.05
2018-09-12T22:03:33.288Z,101812.31
2018-09-12T22:06:01.421Z,101816.83
2018-09-12T22:08:29.561Z,101818.67
2018-09-12T22:10:57.681Z,101815.20
2018-09-12T22:13:25.808Z,101813.95
2018-09-12T22:15:53.936Z,101818.74
2018-09-12T22:18:22.139Z,101818.81
2018-09-12T22:20:50.257Z,101820.98
2018-09-12T22:23:18.365Z,101818.98
2018-09-12T22:25:46.489Z,101811.86
2018-09-12T22:28:14.590Z,101815.50
2018-09-12T22:30:42.707Z,101815.91
2018-09-12T22:33:10.814Z,101816.44
2018-09-12T22:35:38.947Z,101813.67
2018-09-12T22:38:07.165Z,101805.99
2018-09-12T22:40:35.288Z,101802.66
2018-09-12T22:43:03.422Z,101804.69
2018-09-12T22:45:31.581Z,101806.06
2018-09-12T22:47:59.697Z,101806.52
2018-09-12T22:50:27.840Z,101808.30
2018-09-12T22:52:55.997Z,101808.31
2018-09-12T22:55:24.153Z,101807.70
2018-09-12T22:57:52.294Z,101813.47
2018-09-12T23:00:20.431Z,101815.26
2018-09-12T23:02:48.585Z,101811.32
2018-09-12T23:05:16.717Z,101808.61
2018-09-12T23:07:44.856Z,101804.02
2018-09-12T23:10:13.015Z,101807.82
2018-09-12T23:12:41.160Z,101806.70
2018-09-12T23:15:09.325Z,101805.34
2018-09-12T23:17:37.453Z,101803.69
2018-09-12T23:20:06.168Z,101813.40
2018-09-12T23:22:34.299Z,101814.91
2018-09-12T23:25:02.428Z,101815.56
2018-09-12T23:27:30.899Z,101810.45
2018-09-12T23:29:59.085Z,101808.48
2018-09-12T23:32:27.213Z,101814.31
2018-09-12T23:34:55.333Z,101807.43
2018-09-12T23:37:23.460Z,101814.78
2018-09-12T23:39:51.604Z,101807.59
2018-09-12T23:42:19.729Z,101806.16
2018-09-12T23:44:47.874Z,101809.42
2018-09-12T23:47:16.072Z,101810.41
2018-09-12T23:49:44.186Z,101811.27
2018-09-12T23:52:12.316Z,101810.88
2018-09-12T23:54:40.477Z,101814.15
2018-09-12T23:57:08.625Z,101823.45
2018-09-12T23:59:36.749Z,101814.41
